Time;durP1;ratioP1;P1;durP2;ratioP2;P2;SDS_P1;SDS_P2;PMS_P1;PMS_P2;Temp;Humidity;BMP_temperature;BMP_pressure;BME280_temperature;BME280_humidity;BME280_pressure;Samples;Min_cycle;Max_cycle;Signal;HPM_P1;HPM_P2
2021/09/04 00:00:06;;;;;;;18.77;11.30;;;16.40;99.90;;;;;;5001281;28;20687;-50
2021/09/04 00:02:33;;;;;;;19.73;12.23;;;16.30;99.90;;;;;;4996438;28;20320;-49
2021/09/04 00:05:00;;;;;;;22.23;11.90;;;16.20;99.90;;;;;;4996190;28;20213;-49
2021/09/04 00:07:30;;;;;;;20.60;11.60;;;16.20;99.90;;;;;;4997620;28;20245;-49
2021/09/04 00:09:58;;;;;;;19.90;12.10;;;16.10;99.90;;;;;;4995233;28;20775;-49
2021/09/04 00:12:26;;;;;;;22.93;12.03;;;16.20;99.90;;;;;;4996760;28;20231;-49
2021/09/04 00:14:53;;;;;;;22.37;11.97;;;16.20;99.90;;;;;;5003826;28;20231;-50
2021/09/04 00:17:21;;;;;;;17.20;11.00;;;16.20;99.90;;;;;;5000577;28;20288;-49
2021/09/04 00:19:47;;;;;;;23.40;11.80;;;16.10;99.90;;;;;;4997330;28;20276;-49
2021/09/04 00:22:14;;;;;;;19.87;11.77;;;16.20;99.90;;;;;;4994102;28;20301;-52
2021/09/04 00:24:41;;;;;;;20.47;11.63;;;16.30;99.90;;;;;;4996393;28;20331;-50
2021/09/04 00:27:08;;;;;;;21.43;12.67;;;16.20;99.90;;;;;;5000113;28;20514;-49
2021/09/04 00:29:35;;;;;;;17.13;11.37;;;16.20;99.90;;;;;;5001898;28;20251;-50
2021/09/04 00:32:04;;;;;;;17.97;11.53;;;16.20;99.90;;;;;;4996883;28;20223;-49
2021/09/04 00:34:30;;;;;;;20.03;10.33;;;16.00;99.90;;;;;;4994587;28;20757;-49
2021/09/04 00:36:57;;;;;;;17.93;11.70;;;15.90;99.90;;;;;;4999139;28;20314;-50
2021/09/04 00:39:24;;;;;;;19.17;10.90;;;15.80;99.90;;;;;;4995488;28;20665;-50
2021/09/04 00:41:51;;;;;;;21.37;11.90;;;15.90;99.90;;;;;;4998370;28;20295;-49
2021/09/04 00:44:20;;;;;;;18.73;10.67;;;15.80;99.90;;;;;;4995948;28;20239;-49
2021/09/04 00:46:47;;;;;;;21.70;11.90;;;15.70;99.90;;;;;;4999921;28;20247;-49
2021/09/04 00:49:15;;;;;;;21.50;11.00;;;15.80;99.90;;;;;;4996276;28;20406;-52
2021/09/04 00:51:42;;;;;;;18.10;10.77;;;15.80;99.90;;;;;;5000133;28;20240;-49
2021/09/04 00:54:09;;;;;;;20.43;11.47;;;15.90;99.90;;;;;;4993570;28;20307;-49
2021/09/04 00:56:39;;;;;;;14.83;10.07;;;15.50;99.90;;;;;;5000914;28;20191;-50
2021/09/04 00:59:07;;;;;;;18.30;11.13;;;15.70;99.90;;;;;;4996682;28;20335;-49
2021/09/04 01:01:35;;;;;;;21.03;14.03;;;15.70;99.90;;;;;;4994997;28;20191;-49
2021/09/04 01:04:03;;;;;;;19.43;11.67;;;15.80;99.90;;;;;;4993851;28;20515;-49
2021/09/04 01:06:30;;;;;;;19.80;10.87;;;15.70;99.90;;;;;;4988880;28;20599;-50
2021/09/04 01:08:57;;;;;;;18.27;11.00;;;15.70;99.90;;;;;;4994942;28;20273;-49
2021/09/04 01:11:24;;;;;;;16.47;9.53;;;15.70;99.90;;;;;;4996448;28;20704;-49
2021/09/04 01:13:51;;;;;;;16.03;10.40;;;15.50;99.90;;;;;;4997391;28;20224;-49
2021/09/04 01:16:19;;;;;;;17.63;10.63;;;15.60;99.90;;;;;;5013362;28;20569;-51
2021/09/04 01:18:46;;;;;;;18.37;11.43;;;15.60;99.90;;;;;;4996402;28;20192;-49
2021/09/04 01:21:13;;;;;;;18.23;11.13;;;15.60;99.90;;;;;;4997502;28;20262;-50
2021/09/04 01:23:40;;;;;;;17.17;10.93;;;15.70;99.90;;;;;;4997936;28;20230;-50
2021/09/04 01:26:09;;;;;;;22.13;10.30;;;15.60;99.90;;;;;;4994979;28;20242;-49
2021/09/04 01:28:37;;;;;;;21.17;9.60;;;15.50;99.90;;;;;;4996974;28;20222;-50
2021/09/04 01:31:05;;;;;;;19.93;9.77;;;15.30;99.90;;;;;;4993476;28;20208;-50
2021/09/04 01:33:32;;;;;;;19.77;10.50;;;15.20;99.90;;;;;;5011476;28;20295;-49
2021/09/04 01:35:58;;;;;;;17.00;9.97;;;15.20;99.90;;;;;;4998531;28;20568;-49
2021/09/04 01:38:25;;;;;;;22.80;10.70;;;15.30;99.90;;;;;;4998974;28;20278;-49
2021/09/04 01:40:52;;;;;;;17.73;10.90;;;15.30;99.90;;;;;;4996884;28;20649;-49
2021/09/04 01:43:18;;;;;;;17.67;10.67;;;15.30;99.90;;;;;;4998492;28;20203;-49
2021/09/04 01:45:45;;;;;;;27.63;10.00;;;15.30;99.90;;;;;;4997243;28;20204;-51
2021/09/04 01:48:12;;;;;;;17.90;10.07;;;15.20;99.90;;;;;;4997088;28;20281;-49
2021/09/04 01:50:39;;;;;;;17.53;10.17;;;15.10;99.90;;;;;;4988187;28;20291;-52
2021/09/04 01:53:05;;;;;;;21.27;9.83;;;15.00;99.90;;;;;;4999513;28;20343;-49
2021/09/04 01:55:32;;;;;;;20.47;10.40;;;15.10;99.90;;;;;;4995089;28;20244;-49
2021/09/04 01:57:59;;;;;;;15.20;9.40;;;15.20;99.90;;;;;;4997734;28;20395;-49
2021/09/04 02:00:26;;;;;;;20.67;9.57;;;15.10;99.90;;;;;;4998340;28;20258;-49
2021/09/04 02:02:53;;;;;;;14.90;9.53;;;15.00;99.90;;;;;;4992732;28;20293;-49
2021/09/04 02:05:20;;;;;;;21.83;10.00;;;15.00;99.90;;;;;;4995734;28;20233;-49
2021/09/04 02:07:46;;;;;;;18.30;10.13;;;14.70;99.90;;;;;;4997086;28;20241;-49
2021/09/04 02:10:13;;;;;;;16.47;10.27;;;14.70;99.90;;;;;;4995394;28;20260;-50
2021/09/04 02:12:40;;;;;;;18.00;9.80;;;14.90;99.90;;;;;;4993199;28;20620;-51
2021/09/04 02:15:08;;;;;;;19.30;10.43;;;15.00;99.90;;;;;;4998837;28;20288;-51
2021/09/04 02:17:36;;;;;;;16.00;10.27;;;15.00;99.90;;;;;;4994749;28;20214;-49
2021/09/04 02:20:05;;;;;;;16.03;9.70;;;15.00;99.90;;;;;;4993091;28;20329;-49
2021/09/04 02:22:32;;;;;;;18.17;10.27;;;15.10;99.90;;;;;;4993640;28;20196;-49
2021/09/04 02:24:58;;;;;;;20.33;9.97;;;15.00;99.90;;;;;;4997021;28;20206;-49
2021/09/04 02:27:26;;;;;;;18.87;10.67;;;14.80;99.90;;;;;;4995125;28;20249;-49
2021/09/04 02:29:52;;;;;;;18.33;10.70;;;15.00;99.90;;;;;;4995884;28;20308;-51
2021/09/04 02:32:19;;;;;;;17.57;10.63;;;14.90;99.90;;;;;;4996137;28;20318;-51
2021/09/04 02:34:46;;;;;;;16.30;9.50;;;14.90;99.90;;;;;;4999674;28;20214;-51
2021/09/04 02:37:13;;;;;;;18.60;10.23;;;14.90;99.90;;;;;;5002116;28;20568;-51
2021/09/04 02:39:42;;;;;;;18.63;11.50;;;14.80;99.90;;;;;;4997256;28;20213;-49
2021/09/04 02:42:08;;;;;;;20.53;11.17;;;14.80;99.90;;;;;;5000236;28;20643;-49
2021/09/04 02:44:35;;;;;;;18.40;9.70;;;14.80;99.90;;;;;;5000164;28;20244;-49
2021/09/04 02:47:02;;;;;;;18.97;10.53;;;14.80;99.90;;;;;;4997872;28;20717;-49
2021/09/04 02:49:29;;;;;;;19.03;10.23;;;14.70;99.90;;;;;;4999050;28;20742;-49
2021/09/04 02:51:56;;;;;;;18.53;10.53;;;14.60;99.90;;;;;;5003379;28;20245;-49
2021/09/04 02:54:23;;;;;;;16.73;10.77;;;14.70;99.90;;;;;;4997499;28;20260;-51
2021/09/04 02:56:50;;;;;;;18.90;10.60;;;14.60;99.90;;;;;;5000096;28;20280;-49
2021/09/04 02:59:16;;;;;;;18.87;10.03;;;14.60;99.90;;;;;;4996266;28;20239;-49
2021/09/04 03:01:43;;;;;;;18.60;10.90;;;14.60;99.90;;;;;;4997027;28;20277;-49
2021/09/04 03:04:10;;;;;;;22.40;10.57;;;14.40;99.90;;;;;;5001135;28;20244;-49
2021/09/04 03:06:37;;;;;;;19.37;10.20;;;14.50;99.90;;;;;;5000019;28;20206;-49
2021/09/04 03:09:04;;;;;;;16.20;9.90;;;14.50;99.90;;;;;;5000270;28;20237;-51
2021/09/04 03:11:31;;;;;;;22.67;11.17;;;14.40;99.90;;;;;;4997002;28;20293;-49
2021/09/04 03:13:57;;;;;;;20.57;10.03;;;14.10;99.90;;;;;;4999696;28;20641;-49
2021/09/04 03:16:24;;;;;;;18.90;9.97;;;14.30;99.90;;;;;;5000840;28;20233;-49
2021/09/04 03:18:51;;;;;;;20.50;10.03;;;14.30;99.90;;;;;;4994952;28;20211;-49
2021/09/04 03:21:18;;;;;;;18.00;10.20;;;14.20;99.90;;;;;;5000848;28;20302;-50
2021/09/04 03:23:45;;;;;;;23.97;10.77;;;14.30;99.90;;;;;;4997921;28;20247;-49
2021/09/04 03:26:11;;;;;;;22.43;11.03;;;14.40;99.90;;;;;;4998855;28;20580;-50
2021/09/04 03:28:39;;;;;;;20.43;10.67;;;14.30;99.90;;;;;;4998190;28;20239;-49
2021/09/04 03:31:05;;;;;;;18.47;10.10;;;14.20;99.90;;;;;;4994007;28;20217;-49
2021/09/04 03:33:32;;;;;;;18.03;10.10;;;14.20;99.90;;;;;;4996593;28;20712;-50
2021/09/04 03:35:59;;;;;;;20.17;10.57;;;14.30;99.90;;;;;;5013103;28;20365;-49
2021/09/04 03:38:26;;;;;;;23.00;10.60;;;14.30;99.90;;;;;;4998776;28;20225;-49
2021/09/04 03:40:53;;;;;;;18.20;10.70;;;14.10;99.90;;;;;;4999496;28;20199;-49
2021/09/04 03:43:19;;;;;;;16.13;9.93;;;14.20;99.90;;;;;;4993838;28;20243;-49
2021/09/04 03:45:46;;;;;;;19.60;10.13;;;14.20;99.90;;;;;;4999707;28;20293;-49
2021/09/04 03:48:13;;;;;;;20.30;10.33;;;14.30;99.90;;;;;;5000291;28;20444;-49
2021/09/04 03:50:40;;;;;;;20.57;10.17;;;14.40;99.90;;;;;;4998876;28;20247;-49
2021/09/04 03:53:07;;;;;;;20.53;10.63;;;14.20;99.90;;;;;;4994271;28;20650;-49
2021/09/04 03:55:33;;;;;;;17.30;9.83;;;14.20;99.90;;;;;;5001381;28;20634;-49
2021/09/04 03:58:00;;;;;;;22.43;11.17;;;14.20;99.90;;;;;;5014636;28;20297;-49
2021/09/04 04:00:27;;;;;;;18.17;9.47;;;14.10;99.90;;;;;;4995374;28;20213;-49
2021/09/04 04:02:58;;;;;;;16.90;9.93;;;14.10;99.90;;;;;;4993966;28;20210;-49
2021/09/04 04:05:25;;;;;;;20.23;10.00;;;14.10;99.90;;;;;;5000386;28;20643;-49
2021/09/04 04:07:52;;;;;;;28.23;11.20;;;14.00;99.90;;;;;;4999339;28;20277;-49
2021/09/04 04:10:19;;;;;;;20.73;9.77;;;14.00;99.90;;;;;;4996718;28;20655;-49
2021/09/04 04:12:45;;;;;;;21.43;12.13;;;14.10;99.90;;;;;;4997928;28;20399;-49
2021/09/04 04:15:12;;;;;;;28.43;9.43;;;14.00;99.90;;;;;;5000667;28;20308;-49
2021/09/04 04:17:39;;;;;;;23.23;11.73;;;14.10;99.90;;;;;;4997065;28;20301;-49
2021/09/04 04:20:06;;;;;;;21.67;10.80;;;13.90;99.90;;;;;;4997738;28;20201;-49
2021/09/04 04:22:33;;;;;;;24.83;13.03;;;13.90;99.90;;;;;;4997158;28;20320;-50
2021/09/04 04:25:00;;;;;;;20.67;10.97;;;14.00;99.90;;;;;;5000403;28;20284;-50
2021/09/04 04:27:27;;;;;;;24.80;11.93;;;13.90;99.90;;;;;;4996091;28;20397;-50
2021/09/04 04:29:54;;;;;;;20.13;11.23;;;13.90;99.90;;;;;;5000806;28;20232;-50
2021/09/04 04:32:21;;;;;;;19.73;10.77;;;14.00;99.90;;;;;;4994139;28;20228;-49
2021/09/04 04:34:47;;;;;;;26.33;11.80;;;13.90;99.90;;;;;;4999127;28;20401;-50
2021/09/04 04:37:14;;;;;;;22.30;11.80;;;14.00;99.90;;;;;;5000623;28;20202;-50
2021/09/04 04:39:41;;;;;;;22.97;11.80;;;14.00;99.90;;;;;;4995796;28;20354;-50
2021/09/04 04:42:08;;;;;;;32.43;13.00;;;14.10;99.90;;;;;;5000631;28;20298;-50
2021/09/04 04:44:34;;;;;;;27.10;13.23;;;14.20;99.90;;;;;;4999418;28;20193;-50
2021/09/04 04:47:01;;;;;;;24.77;12.37;;;14.20;99.90;;;;;;4997061;28;20209;-50
2021/09/04 04:49:28;;;;;;;27.67;12.70;;;14.20;99.90;;;;;;5000598;28;20303;-50
2021/09/04 04:51:55;;;;;;;21.70;12.83;;;14.30;99.90;;;;;;4998367;28;20292;-49
2021/09/04 04:54:21;;;;;;;30.30;13.73;;;14.30;99.90;;;;;;4994448;28;20235;-49
2021/09/04 04:56:48;;;;;;;25.03;13.53;;;14.10;99.90;;;;;;4999975;28;20658;-50
2021/09/04 04:59:15;;;;;;;27.70;13.30;;;14.00;99.90;;;;;;4997902;28;20669;-50
2021/09/04 05:01:42;;;;;;;26.43;14.60;;;14.00;99.90;;;;;;4994880;28;20288;-50
2021/09/04 05:04:09;;;;;;;23.40;13.47;;;13.90;99.90;;;;;;4997879;28;20194;-49
2021/09/04 05:06:36;;;;;;;28.60;13.27;;;14.10;99.90;;;;;;4995958;28;20543;-49
2021/09/04 05:09:03;;;;;;;25.10;13.70;;;13.90;99.90;;;;;;4998401;28;20264;-49
2021/09/04 05:11:29;;;;;;;25.73;14.20;;;14.00;99.90;;;;;;4999386;28;21028;-50
2021/09/04 05:13:56;;;;;;;26.07;13.17;;;14.00;99.90;;;;;;4998057;28;20210;-49
2021/09/04 05:16:23;;;;;;;31.00;13.83;;;14.00;99.90;;;;;;5000174;28;20309;-49
2021/09/04 05:18:50;;;;;;;22.23;13.63;;;14.00;99.90;;;;;;4995741;28;20232;-50
2021/09/04 05:21:16;;;;;;;28.37;13.83;;;14.00;99.90;;;;;;4996123;28;20300;-50
2021/09/04 05:23:43;;;;;;;22.97;13.07;;;14.10;99.90;;;;;;4996899;28;20201;-50
2021/09/04 05:26:10;;;;;;;22.67;12.53;;;13.90;99.90;;;;;;4997535;28;20202;-50
2021/09/04 05:28:37;;;;;;;23.77;13.17;;;14.00;99.90;;;;;;4996900;28;20285;-49
2021/09/04 05:31:04;;;;;;;26.10;13.67;;;13.80;99.90;;;;;;4997581;28;20280;-50
2021/09/04 05:33:31;;;;;;;24.40;13.90;;;14.00;99.90;;;;;;4994853;28;20285;-50
2021/09/04 05:35:58;;;;;;;26.67;14.37;;;13.90;99.90;;;;;;4997432;28;20249;-50
2021/09/04 05:38:25;;;;;;;27.20;13.77;;;13.80;99.90;;;;;;4995997;28;20247;-50
2021/09/04 05:40:51;;;;;;;24.03;13.47;;;13.90;99.90;;;;;;4997648;28;20202;-49
2021/09/04 05:43:20;;;;;;;28.37;13.13;;;13.90;99.90;;;;;;4997614;28;20248;-50
2021/09/04 05:45:50;;;;;;;25.10;13.60;;;13.80;99.90;;;;;;4997152;28;20281;-50
2021/09/04 05:48:17;;;;;;;24.33;12.93;;;14.00;99.90;;;;;;4993839;28;20201;-50
2021/09/04 05:50:43;;;;;;;28.40;13.87;;;14.10;99.90;;;;;;4995534;28;20500;-49
2021/09/04 05:53:10;;;;;;;32.10;13.90;;;14.10;99.90;;;;;;4995958;28;20205;-50
2021/09/04 05:55:37;;;;;;;27.30;14.70;;;14.10;99.90;;;;;;4994898;28;20748;-49
2021/09/04 05:58:04;;;;;;;27.07;13.97;;;14.10;99.90;;;;;;4994551;28;20757;-50
2021/09/04 06:00:31;;;;;;;28.90;13.73;;;14.10;99.90;;;;;;4992648;28;20228;-50
2021/09/04 06:02:58;;;;;;;30.57;14.40;;;14.10;99.90;;;;;;4993488;28;20205;-50
2021/09/04 06:05:25;;;;;;;26.77;14.27;;;14.10;99.90;;;;;;4998991;28;20261;-49
2021/09/04 06:07:52;;;;;;;28.57;14.00;;;14.10;99.90;;;;;;4998238;28;20290;-52
2021/09/04 06:10:19;;;;;;;24.50;13.40;;;14.20;99.90;;;;;;4999926;28;20368;-49
2021/09/04 06:12:45;;;;;;;26.90;13.83;;;14.10;99.90;;;;;;4998483;28;20208;-50
2021/09/04 06:15:12;;;;;;;27.67;14.20;;;14.30;99.90;;;;;;5001442;28;20241;-50
2021/09/04 06:17:39;;;;;;;27.93;14.57;;;14.20;99.90;;;;;;4997998;28;20256;-50
2021/09/04 06:20:07;;;;;;;31.57;14.73;;;14.20;99.90;;;;;;4998032;28;20289;-50
2021/09/04 06:22:34;;;;;;;25.67;15.40;;;14.20;99.90;;;;;;4998297;28;20282;-50
2021/09/04 06:25:02;;;;;;;30.87;14.73;;;14.30;99.90;;;;;;4998842;28;20307;-50
2021/09/04 06:27:29;;;;;;;34.87;14.00;;;14.30;99.90;;;;;;5001538;28;20283;-50
2021/09/04 06:29:56;;;;;;;30.43;14.60;;;14.30;99.90;;;;;;4995328;28;20293;-50
2021/09/04 06:32:22;;;;;;;28.00;14.07;;;14.30;99.90;;;;;;4996061;28;20361;-50
2021/09/04 06:34:49;;;;;;;29.53;14.47;;;14.30;99.90;;;;;;4995838;28;20225;-50
2021/09/04 06:37:16;;;;;;;27.90;14.83;;;14.40;99.90;;;;;;5000985;28;20861;-50
2021/09/04 06:39:43;;;;;;;28.67;14.23;;;14.20;99.90;;;;;;5000272;28;20240;-50
2021/09/04 06:42:10;;;;;;;30.27;14.17;;;14.30;99.90;;;;;;5001969;28;20285;-49
2021/09/04 06:44:36;;;;;;;26.93;13.00;;;14.20;99.90;;;;;;5003581;28;20747;-50
2021/09/04 06:47:03;;;;;;;26.30;13.73;;;14.10;99.90;;;;;;5002312;28;20215;-50
2021/09/04 06:49:30;;;;;;;31.73;14.97;;;14.10;99.90;;;;;;5002043;28;20260;-50
2021/09/04 06:51:57;;;;;;;32.47;15.67;;;14.10;99.90;;;;;;4999441;28;20291;-49
2021/09/04 06:54:24;;;;;;;27.20;15.00;;;14.20;99.90;;;;;;4998317;28;20327;-50
2021/09/04 06:56:51;;;;;;;28.50;14.43;;;14.30;99.90;;;;;;5002235;28;20629;-50
2021/09/04 06:59:18;;;;;;;33.47;13.67;;;14.40;99.90;;;;;;5000468;28;20286;-50
2021/09/04 07:01:45;;;;;;;26.93;13.73;;;14.50;99.90;;;;;;4996204;28;20253;-50
2021/09/04 07:04:12;;;;;;;25.63;14.33;;;14.50;99.90;;;;;;5000839;28;20248;-50
2021/09/04 07:06:39;;;;;;;28.00;13.80;;;14.60;99.90;;;;;;5001047;28;20736;-50
2021/09/04 07:09:06;;;;;;;29.60;14.23;;;14.60;99.90;;;;;;4997962;28;20272;-49
2021/09/04 07:11:33;;;;;;;27.70;12.67;;;14.50;99.90;;;;;;4996805;28;20233;-49
2021/09/04 07:14:00;;;;;;;21.97;13.03;;;14.50;99.90;;;;;;4996925;28;20546;-50
2021/09/04 07:16:27;;;;;;;24.57;13.20;;;14.30;99.90;;;;;;4998889;28;20316;-50
2021/09/04 07:18:54;;;;;;;26.17;12.87;;;14.30;99.90;;;;;;5001781;28;20250;-49
2021/09/04 07:21:20;;;;;;;23.57;11.73;;;14.30;99.90;;;;;;5001108;28;20294;-49
2021/09/04 07:23:47;;;;;;;23.83;11.93;;;14.00;99.90;;;;;;5001596;28;20675;-50
2021/09/04 07:26:14;;;;;;;24.00;13.17;;;14.10;99.90;;;;;;4996182;28;20628;-50
2021/09/04 07:28:41;;;;;;;24.87;13.10;;;14.20;99.90;;;;;;4994312;28;20207;-50
2021/09/04 07:31:08;;;;;;;23.93;13.53;;;14.20;99.90;;;;;;5000377;28;20695;-50
2021/09/04 07:33:35;;;;;;;24.63;12.10;;;14.20;99.90;;;;;;5015531;28;20322;-49
2021/09/04 07:36:08;;;;;;;28.30;12.53;;;14.30;99.90;;;;;;4997234;28;20317;-50
2021/09/04 07:38:35;;;;;;;25.77;12.83;;;14.30;99.90;;;;;;4998269;28;20761;-49
2021/09/04 07:41:02;;;;;;;28.20;13.13;;;14.30;99.90;;;;;;4999153;28;20293;-49
2021/09/04 07:43:29;;;;;;;27.80;12.57;;;14.40;99.90;;;;;;4997258;28;20622;-50
2021/09/04 07:45:56;;;;;;;25.53;13.87;;;14.40;99.90;;;;;;4997460;28;20662;-50
2021/09/04 07:48:25;;;;;;;25.13;13.13;;;14.40;99.90;;;;;;4994997;28;21743;-51
2021/09/04 07:50:53;;;;;;;26.60;13.90;;;14.50;99.90;;;;;;4998349;28;20216;-50
2021/09/04 07:53:20;;;;;;;27.13;13.30;;;14.30;99.90;;;;;;4994414;28;20210;-50
2021/09/04 07:55:47;;;;;;;23.20;12.80;;;14.40;99.90;;;;;;4997871;28;20296;-50
2021/09/04 07:58:14;;;;;;;27.17;13.60;;;14.50;99.90;;;;;;4993403;28;20320;-50
2021/09/04 08:00:41;;;;;;;24.07;12.80;;;14.40;99.90;;;;;;5000521;28;20612;-51
2021/09/04 08:03:08;;;;;;;25.90;13.00;;;14.40;99.90;;;;;;4993564;28;20744;-50
2021/09/04 08:05:35;;;;;;;21.13;12.27;;;14.30;99.90;;;;;;4998349;28;20532;-50
2021/09/04 08:08:02;;;;;;;26.37;12.93;;;14.30;99.90;;;;;;4994064;28;20210;-49
2021/09/04 08:10:29;;;;;;;30.63;14.17;;;14.30;99.90;;;;;;4992935;28;20336;-50
2021/09/04 08:12:56;;;;;;;26.37;14.27;;;14.40;99.90;;;;;;4996261;28;20243;-49
2021/09/04 08:15:23;;;;;;;25.03;12.67;;;14.40;99.90;;;;;;4992329;28;20231;-50
2021/09/04 08:17:50;;;;;;;26.20;13.50;;;14.50;99.90;;;;;;4994828;28;20286;-50
2021/09/04 08:20:17;;;;;;;27.10;13.27;;;14.70;99.90;;;;;;4995278;28;20206;-50
2021/09/04 08:22:44;;;;;;;25.40;12.93;;;14.60;99.90;;;;;;5001318;28;20236;-50
2021/09/04 08:25:11;;;;;;;25.30;13.23;;;14.50;99.90;;;;;;5002570;28;20264;-50
2021/09/04 08:27:37;;;;;;;24.03;13.27;;;14.60;99.90;;;;;;4993040;28;20290;-50
2021/09/04 08:30:05;;;;;;;25.40;13.13;;;14.80;99.90;;;;;;4999305;28;20424;-50
2021/09/04 08:32:32;;;;;;;20.30;12.13;;;14.80;99.90;;;;;;4999950;28;20307;-50
2021/09/04 08:34:59;;;;;;;25.63;14.00;;;14.90;99.90;;;;;;4995186;28;20251;-50
2021/09/04 08:37:26;;;;;;;20.33;10.77;;;14.90;99.90;;;;;;5000143;28;20284;-50
2021/09/04 08:39:53;;;;;;;25.57;11.63;;;15.00;99.90;;;;;;5002496;28;20725;-50
2021/09/04 08:42:20;;;;;;;23.87;11.27;;;15.00;99.90;;;;;;5001395;28;20237;-50
2021/09/04 08:44:47;;;;;;;24.33;12.67;;;15.00;99.90;;;;;;4995795;28;20243;-50
2021/09/04 08:47:17;;;;;;;24.00;12.13;;;15.00;99.90;;;;;;4994304;28;20194;-50
2021/09/04 08:49:46;;;;;;;22.87;12.27;;;15.00;99.90;;;;;;5004162;28;20241;-50
2021/09/04 08:52:13;;;;;;;20.73;12.53;;;15.00;99.90;;;;;;5012102;28;20318;-50
2021/09/04 08:54:40;;;;;;;19.57;11.03;;;15.00;99.90;;;;;;4994325;28;20230;-50
2021/09/04 08:57:07;;;;;;;25.23;12.60;;;14.90;99.90;;;;;;5003152;28;20283;-50
2021/09/04 08:59:33;;;;;;;22.27;11.53;;;15.10;99.90;;;;;;4997508;28;20717;-50
2021/09/04 09:02:09;;;;;;;21.80;12.13;;;15.10;99.90;;;;;;4993466;28;20202;-50
2021/09/04 09:04:36;;;;;;;21.10;12.63;;;15.10;99.90;;;;;;4993954;28;20220;-50
2021/09/04 09:07:09;;;;;;;22.53;12.47;;;15.00;99.90;;;;;;4992981;28;20203;-50
2021/09/04 09:09:36;;;;;;;23.83;11.97;;;15.30;99.90;;;;;;4997343;28;20298;-50
2021/09/04 09:12:12;;;;;;;23.77;13.53;;;15.40;99.90;;;;;;5009310;28;20230;-50
2021/09/04 09:14:55;;;;;;;22.17;13.17;;;15.40;99.90;;;;;;5002575;28;20645;-50
2021/09/04 09:17:24;;;;;;;24.23;13.40;;;15.40;99.90;;;;;;4997329;28;20280;-50
2021/09/04 09:20:05;;;;;;;24.50;13.03;;;15.50;99.90;;;;;;5006942;28;20239;-50
2021/09/04 09:22:43;;;;;;;24.10;12.70;;;15.50;99.90;;;;;;5006983;28;20192;-51
2021/09/04 09:25:16;;;;;;;23.83;12.60;;;15.30;99.90;;;;;;5011112;28;20366;-50
2021/09/04 09:27:59;;;;;;;20.17;13.00;;;15.30;99.90;;;;;;5005557;28;20261;-50
2021/09/04 09:30:36;;;;;;;26.33;13.53;;;15.20;99.90;;;;;;4997868;28;20257;-50
2021/09/04 09:33:04;;;;;;;20.57;12.47;;;15.10;99.90;;;;;;4992012;28;20448;-50
2021/09/04 09:35:50;;;;;;;26.37;13.70;;;15.10;99.90;;;;;;4997310;28;20346;-50
2021/09/04 09:38:25;;;;;;;22.93;14.60;;;15.40;99.90;;;;;;4996139;28;20287;-50
2021/09/04 09:40:54;;;;;;;22.30;13.10;;;15.30;99.90;;;;;;4997662;28;20301;-50
2021/09/04 09:43:29;;;;;;;25.43;13.27;;;15.30;99.90;;;;;;4994759;28;20198;-51
2021/09/04 09:46:01;;;;;;;24.70;12.37;;;15.10;99.90;;;;;;4992061;28;20205;-50
2021/09/04 09:48:31;;;;;;;23.93;13.47;;;15.20;99.90;;;;;;4998952;28;20281;-50
2021/09/04 09:51:01;;;;;;;21.00;12.50;;;15.40;99.90;;;;;;4993830;28;20935;-50
2021/09/04 09:53:29;;;;;;;24.73;14.27;;;15.30;99.90;;;;;;4990666;28;20676;-50
2021/09/04 09:55:58;;;;;;;27.60;14.47;;;15.50;99.90;;;;;;4995500;28;20308;-50
2021/09/04 09:58:26;;;;;;;23.90;13.97;;;15.50;99.90;;;;;;4995970;28;20234;-50
2021/09/04 10:00:55;;;;;;;25.90;14.30;;;15.50;99.90;;;;;;4997154;28;20239;-50
2021/09/04 10:03:26;;;;;;;23.10;12.13;;;15.70;99.90;;;;;;4990569;28;20414;-50
2021/09/04 10:05:54;;;;;;;25.13;13.43;;;15.90;99.90;;;;;;4995834;28;20205;-50
2021/09/04 10:08:23;;;;;;;20.43;11.80;;;15.80;99.90;;;;;;4992079;28;20219;-50
2021/09/04 10:10:50;;;;;;;20.17;12.23;;;15.90;99.90;;;;;;4997637;28;20219;-49
2021/09/04 10:13:17;;;;;;;21.70;12.60;;;16.10;99.90;;;;;;4998433;28;20692;-50
2021/09/04 10:15:50;;;;;;;21.73;13.10;;;16.10;99.90;;;;;;4997193;28;20210;-50
2021/09/04 10:18:23;;;;;;;23.80;13.30;;;16.20;99.90;;;;;;4996384;28;20197;-50
2021/09/04 10:21:11;;;;;;;23.13;12.63;;;16.20;99.90;;;;;;4997728;28;20735;-50
2021/09/04 10:23:52;;;;;;;21.60;12.80;;;16.50;99.90;;;;;;4999729;28;20304;-50
2021/09/04 10:26:26;;;;;;;20.37;13.13;;;16.50;99.90;;;;;;4995300;28;20572;-51
2021/09/04 10:29:01;;;;;;;19.47;11.90;;;16.50;99.90;;;;;;4992587;28;20355;-50
2021/09/04 10:31:45;;;;;;;20.80;12.23;;;16.60;99.90;;;;;;4991749;28;20310;-50
2021/09/04 10:34:24;;;;;;;23.87;12.00;;;16.60;99.90;;;;;;4995284;28;20313;-50
2021/09/04 10:37:15;;;;;;;17.40;11.87;;;16.70;99.90;;;;;;4996459;28;20660;-51
2021/09/04 10:40:03;;;;;;;18.17;11.30;;;16.60;99.90;;;;;;4994616;28;20230;-50
2021/09/04 10:42:31;;;;;;;22.17;12.60;;;16.70;99.90;;;;;;4994565;28;20256;-50
2021/09/04 10:45:08;;;;;;;17.63;11.53;;;16.60;99.90;;;;;;4997021;28;20240;-50
2021/09/04 10:47:50;;;;;;;17.43;11.73;;;16.70;99.90;;;;;;5002526;28;20418;-49
2021/09/04 10:50:20;;;;;;;16.33;10.13;;;16.80;99.90;;;;;;5000293;28;20618;-50
2021/09/04 10:52:49;;;;;;;17.50;11.53;;;17.10;99.90;;;;;;5000578;28;20232;-49
2021/09/04 10:55:21;;;;;;;23.90;12.53;;;17.30;99.90;;;;;;5000014;28;20201;-50
2021/09/04 10:58:13;;;;;;;18.30;11.00;;;17.30;99.90;;;;;;5000447;28;20349;-50
2021/09/04 11:00:50;;;;;;;21.03;12.00;;;17.50;99.90;;;;;;5002283;28;20281;-50
2021/09/04 11:03:19;;;;;;;18.97;11.47;;;17.30;99.90;;;;;;5002726;28;20602;-51
2021/09/04 11:05:56;;;;;;;18.80;12.90;;;17.40;99.90;;;;;;5002617;28;20556;-50
2021/09/04 11:08:35;;;;;;;18.20;11.20;;;17.80;99.90;;;;;;4996034;28;20251;-50
2021/09/04 11:11:09;;;;;;;21.27;12.47;;;18.10;99.90;;;;;;5001868;28;20286;-50
2021/09/04 11:13:39;;;;;;;18.77;12.10;;;18.20;99.90;;;;;;4995646;28;20236;-51
2021/09/04 11:16:27;;;;;;;20.00;12.73;;;18.40;99.90;;;;;;5001175;28;20241;-50
2021/09/04 11:18:59;;;;;;;17.40;11.33;;;18.60;99.90;;;;;;5003589;28;20224;-51
2021/09/04 11:21:26;;;;;;;21.40;12.37;;;18.90;1.00;;;;;;4999592;28;20304;-51
2021/09/04 11:23:53;;;;;;;18.27;11.60;;;18.90;1.00;;;;;;4997383;28;20297;-51
2021/09/04 11:26:20;;;;;;;17.13;10.97;;;19.10;1.00;;;;;;5000663;28;20634;-50
2021/09/04 11:28:55;;;;;;;16.17;11.50;;;19.20;34.00;;;;;;4997699;28;20224;-50
2021/09/04 11:31:23;;;;;;;16.03;10.93;;;19.50;1.00;;;;;;4998375;28;20233;-51
2021/09/04 11:33:54;;;;;;;19.63;11.90;;;19.60;1.00;;;;;;5000296;28;20205;-50
2021/09/04 11:36:32;;;;;;;17.60;11.83;;;19.90;1.00;;;;;;5003807;28;20660;-50
2021/09/04 11:39:00;;;;;;;17.00;11.13;;;20.10;1.00;;;;;;5000369;28;20193;-50
2021/09/04 11:41:27;;;;;;;18.87;12.27;;;20.40;1.00;;;;;;4994314;28;20196;-50
2021/09/04 11:43:53;;;;;;;17.13;10.87;;;20.20;1.00;;;;;;5000910;28;20273;-50
2021/09/04 11:46:25;;;;;;;16.37;11.67;;;20.30;1.00;;;;;;5000568;28;20610;-51
2021/09/04 11:48:56;;;;;;;18.20;11.30;;;20.70;99.90;;;;;;4999925;28;20291;-51
2021/09/04 11:51:23;;;;;;;18.27;12.30;;;20.90;99.90;;;;;;4995937;28;20221;-50
2021/09/04 11:54:03;;;;;;;19.50;12.20;;;20.70;1.00;;;;;;4996386;28;20231;-51
2021/09/04 11:56:31;;;;;;;17.07;12.00;;;20.60;99.90;;;;;;4994855;28;20220;-51
2021/09/04 11:59:06;;;;;;;16.07;11.07;;;20.90;1.00;;;;;;4994238;28;20632;-51
2021/09/04 12:01:34;;;;;;;16.17;10.70;;;21.50;99.90;;;;;;4993798;28;20751;-51
2021/09/04 12:04:02;;;;;;;17.43;12.13;;;21.70;1.00;;;;;;5012946;28;20201;-51
2021/09/04 12:06:29;;;;;;;16.87;11.03;;;21.60;99.90;;;;;;4996599;28;20296;-51
2021/09/04 12:08:57;;;;;;;19.73;12.23;;;21.70;1.00;;;;;;4999847;28;22234;-51
2021/09/04 12:11:25;;;;;;;16.80;12.43;;;21.70;1.00;;;;;;4992938;28;20304;-51
2021/09/04 12:13:52;;;;;;;14.63;10.80;;;22.00;99.90;;;;;;4993969;28;20583;-51
2021/09/04 12:16:19;;;;;;;15.70;10.80;;;22.30;99.90;;;;;;4992628;28;20231;-51
2021/09/04 12:18:46;;;;;;;18.57;12.50;;;22.50;1.00;;;;;;4996653;28;20244;-51
2021/09/04 12:21:27;;;;;;;15.73;10.97;;;22.40;1.00;;;;;;4997103;28;20723;-50
2021/09/04 12:23:57;;;;;;;15.10;10.77;;;22.50;64.00;;;;;;4997693;28;20526;-50
2021/09/04 12:26:23;;;;;;;16.23;11.90;;;22.50;1.00;;;;;;4993273;28;20552;-50
2021/09/04 12:29:08;;;;;;;16.73;11.17;;;22.40;99.90;;;;;;4994761;28;21816;-51
2021/09/04 12:31:41;;;;;;;16.70;10.90;;;21.80;1.00;;;;;;4995789;28;20630;-51
2021/09/04 12:34:08;;;;;;;15.10;10.67;;;22.10;99.90;;;;;;5005832;28;20689;-51